Time;durP1;ratioP1;P1;durP2;ratioP2;P2;SDS_P1;SDS_P2;PMS_P1;PMS_P2;Temp;Humidity;BMP_temperature;BMP_pressure;BME280_temperature;BME280_humidity;BME280_pressure;Samples;Min_cycle;Max_cycle;Signal;HPM_P1;HPM_P2
2022/10/05 00:00:53;;;;;;;6.35;5.00;;;;;;;11.14;58.37;100306.97;5013664;28;20064;-70
2022/10/05 00:03:21;;;;;;;11.07;5.93;;;;;;;11.06;58.44;100308.56;5013536;28;20099;-69
2022/10/05 00:05:48;;;;;;;11.13;6.13;;;;;;;11.17;57.64;100308.31;5003813;28;20100;-70
2022/10/05 00:08:23;;;;;;;9.13;5.97;;;;;;;11.12;57.82;100311.28;5006489;28;20032;-70
2022/10/05 00:10:49;;;;;;;8.75;4.95;;;;;;;11.20;57.99;100321.69;5012456;28;20028;-70
2022/10/05 00:13:25;;;;;;;7.63;5.82;;;;;;;11.40;57.13;100317.53;5013365;28;20087;-70
2022/10/05 00:15:58;;;;;;;7.95;5.40;;;;;;;11.16;57.89;100320.69;5012719;28;20029;-70
2022/10/05 00:18:25;;;;;;;10.57;6.18;;;;;;;10.78;58.66;100311.50;5012360;28;20120;-69
2022/10/05 00:20:51;;;;;;;6.70;5.97;;;;;;;10.63;59.53;100311.84;5010403;28;20480;-70
2022/10/05 00:23:30;;;;;;;8.90;6.30;;;;;;;10.59;60.11;100313.59;5013262;28;20036;-70
2022/10/05 00:26:23;;;;;;;7.72;6.72;;;;;;;10.54;60.19;100311.75;5012536;28;20116;-70
2022/10/05 00:28:49;;;;;;;7.20;6.35;;;;;;;10.60;59.38;100309.66;5011813;28;20030;-70
2022/10/05 00:31:21;;;;;;;10.95;5.97;;;;;;;10.26;60.31;100320.16;5013072;28;20036;-70
2022/10/05 00:33:47;;;;;;;7.22;6.18;;;;;;;10.34;60.93;100324.19;5011703;28;20124;-70
2022/10/05 00:36:13;;;;;;;8.60;5.88;;;;;;;10.55;59.83;100327.38;5010930;28;20488;-70
2022/10/05 00:38:39;;;;;;;7.05;6.35;;;;;;;10.79;59.48;100324.34;5011280;28;20026;-69
2022/10/05 00:41:39;;;;;;;20.27;6.65;;;;;;;11.18;58.38;100335.19;5012887;28;20026;-70
2022/10/05 00:44:35;;;;;;;8.43;5.90;;;;;;;11.31;57.42;100333.47;5012734;28;20459;-70
2022/10/05 00:47:38;;;;;;;8.68;6.75;;;;;;;10.84;58.61;100328.16;5010666;28;20401;-70
2022/10/05 00:50:38;;;;;;;7.88;6.10;;;;;;;10.39;60.21;100321.31;4997927;28;20079;-70
2022/10/05 00:53:33;;;;;;;8.20;6.28;;;;;;;10.27;60.79;100315.41;5012742;28;20061;-70
2022/10/05 00:56:11;;;;;;;9.00;6.30;;;;;;;10.57;60.16;100316.75;5003650;28;20045;-70
2022/10/05 00:59:07;;;;;;;5.97;5.38;;;;;;;11.00;58.93;100317.41;5008440;28;20034;-70
2022/10/05 01:01:47;;;;;;;7.03;6.32;;;;;;;11.15;57.92;100302.22;5012556;28;20084;-70
2022/10/05 01:04:24;;;;;;;9.73;7.30;;;;;;;11.42;57.34;100306.00;5012416;28;20156;-70
2022/10/05 01:07:07;;;;;;;12.25;7.90;;;;;;;11.47;56.68;100298.31;5009069;28;20072;-69
2022/10/05 01:09:45;;;;;;;7.63;6.88;;;;;;;11.42;57.07;100301.25;5010145;28;20504;-70
2022/10/05 01:12:55;;;;;;;13.07;7.70;;;;;;;11.44;57.11;100314.91;5011006;28;20485;-70
2022/10/05 01:15:28;;;;;;;7.07;6.13;;;;;;;11.52;56.61;100308.56;5007423;28;20084;-69
2022/10/05 01:18:04;;;;;;;8.35;6.90;;;;;;;11.29;57.07;100308.56;5006312;28;20030;-70
2022/10/05 01:21:00;;;;;;;8.65;7.32;;;;;;;11.08;57.57;100306.28;5012055;28;20041;-70
2022/10/05 01:23:37;;;;;;;8.95;6.07;;;;;;;11.16;57.59;100309.47;5012500;28;20528;-70
2022/10/05 01:26:21;;;;;;;7.80;6.35;;;;;;;10.16;59.72;100317.59;5011135;28;20029;-70
2022/10/05 01:29:14;;;;;;;7.10;6.32;;;;;;;10.78;58.82;100314.28;5010991;28;20030;-70
2022/10/05 01:31:58;;;;;;;8.32;6.22;;;;;;;11.00;57.61;100318.25;5010454;28;20496;-70
2022/10/05 01:34:37;;;;;;;9.55;6.32;;;;;;;11.08;57.58;100317.47;5010542;28;20029;-70
2022/10/05 01:37:29;;;;;;;13.48;6.47;;;;;;;10.98;57.58;100328.94;5009335;28;20539;-70
2022/10/05 01:40:20;;;;;;;11.90;6.55;;;;;;;11.03;57.75;100328.81;4992322;28;20429;-70
2022/10/05 01:43:04;;;;;;;15.18;6.07;;;;;;;11.03;57.29;100328.81;4991072;28;20093;-70
2022/10/05 01:45:59;;;;;;;6.68;5.85;;;;;;;11.00;57.49;100332.25;4992229;28;20058;-69
2022/10/05 01:48:49;;;;;;;9.55;6.15;;;;;;;10.99;57.36;100344.59;5010744;28;20560;-70
2022/10/05 01:51:26;;;;;;;7.30;6.07;;;;;;;11.02;57.74;100343.97;4992346;28;20494;-70
2022/10/05 01:54:07;;;;;;;9.82;6.07;;;;;;;11.08;57.29;100350.28;4992223;28;20408;-70
2022/10/05 01:56:35;;;;;;;8.60;6.70;;;;;;;11.04;57.70;100352.03;5000436;28;20488;-70
2022/10/05 01:59:18;;;;;;;8.38;6.15;;;;;;;11.00;57.24;100349.06;5006453;28;20034;-70
2022/10/05 02:01:55;;;;;;;9.07;6.25;;;;;;;10.93;58.34;100362.66;5002060;28;20038;-69
2022/10/05 02:04:33;;;;;;;7.70;5.70;;;;;;;10.85;58.09;100368.97;5011663;28;20463;-70
2022/10/05 02:07:02;;;;;;;7.63;6.35;;;;;;;10.81;58.89;100363.22;5011589;28;20500;-70
2022/10/05 02:09:35;;;;;;;6.75;5.75;;;;;;;10.85;58.30;100361.44;5009940;28;20018;-70
2022/10/05 02:12:10;;;;;;;8.73;5.85;;;;;;;10.88;58.00;100369.19;5010221;28;20026;-70
2022/10/05 02:14:40;;;;;;;9.38;6.03;;;;;;;10.95;58.09;100380.78;5010296;28;20083;-70
2022/10/05 02:17:32;;;;;;;8.38;7.22;;;;;;;10.97;58.28;100380.47;5011420;28;20033;-70
2022/10/05 02:20:03;;;;;;;15.35;7.10;;;;;;;10.97;58.26;100385.25;5009573;28;20084;-70
2022/10/05 02:22:44;;;;;;;7.30;5.40;;;;;;;10.98;58.22;100396.13;5011356;28;20041;-69
2022/10/05 02:25:15;;;;;;;7.93;5.90;;;;;;;10.96;58.14;100398.41;5009886;28;20025;-69
2022/10/05 02:27:48;;;;;;;20.83;8.80;;;;;;;10.83;58.37;100408.50;5010962;28;20032;-69
2022/10/05 02:30:16;;;;;;;13.55;8.25;;;;;;;10.93;57.84;100408.28;5010237;28;20390;-69
2022/10/05 02:33:15;;;;;;;13.65;7.10;;;;;;;10.90;58.11;100413.66;5011327;28;20477;-69
2022/10/05 02:35:41;;;;;;;13.68;6.45;;;;;;;10.91;58.43;100410.53;5002989;28;20041;-69
2022/10/05 02:38:15;;;;;;;10.15;6.15;;;;;;;10.91;58.49;100415.31;5010034;28;20492;-70
2022/10/05 02:40:47;;;;;;;10.88;7.28;;;;;;;10.92;58.85;100416.97;5009179;28;20026;-69
2022/10/05 02:43:21;;;;;;;7.10;6.38;;;;;;;10.85;58.82;100414.59;5008730;28;20507;-70
2022/10/05 02:45:52;;;;;;;10.80;6.88;;;;;;;10.65;59.50;100416.69;5012909;28;20065;-69
2022/10/05 02:48:36;;;;;;;10.38;6.80;;;;;;;10.75;59.38;100420.41;5013585;28;20540;-70
2022/10/05 02:51:13;;;;;;;13.07;6.80;;;;;;;10.78;58.83;100411.41;5013625;28;20117;-70
2022/10/05 02:53:52;;;;;;;8.98;6.93;;;;;;;10.76;59.00;100420.13;5013684;28;20053;-69
2022/10/05 02:56:42;;;;;;;7.32;6.47;;;;;;;10.70;59.41;100420.53;5013343;28;20467;-70
2022/10/05 02:59:15;;;;;;;15.63;6.13;;;;;;;10.64;59.51;100417.84;5012812;28;20155;-69
2022/10/05 03:01:59;;;;;;;12.02;7.55;;;;;;;10.55;59.32;100424.50;5014706;28;20030;-70
2022/10/05 03:04:37;;;;;;;8.77;6.38;;;;;;;10.55;59.35;100428.09;5014798;28;20053;-69
2022/10/05 03:07:16;;;;;;;8.82;6.93;;;;;;;10.37;60.14;100418.63;5012512;28;20029;-70
2022/10/05 03:09:57;;;;;;;7.70;6.90;;;;;;;10.45;59.88;100431.94;5014595;28;20025;-70
2022/10/05 03:12:26;;;;;;;9.25;6.25;;;;;;;10.58;59.95;100423.84;5014450;28;20054;-69
2022/10/05 03:14:54;;;;;;;7.45;6.07;;;;;;;10.49;59.56;100429.34;5012474;28;20065;-70
2022/10/05 03:17:26;;;;;;;15.63;6.00;;;;;;;10.45;59.87;100429.16;5012182;28;20049;-69
2022/10/05 03:20:16;;;;;;;8.40;6.05;;;;;;;10.38;60.43;100437.09;5010524;28;20034;-70
2022/10/05 03:22:49;;;;;;;8.98;5.97;;;;;;;10.44;59.85;100432.25;5014473;28;20037;-70
2022/10/05 03:25:24;;;;;;;7.90;5.32;;;;;;;10.53;59.82;100431.22;5013114;28;20077;-70
2022/10/05 03:28:21;;;;;;;6.55;5.82;;;;;;;10.60;59.93;100433.59;5013557;28;20033;-69
2022/10/05 03:31:13;;;;;;;6.43;5.50;;;;;;;10.63;59.52;100429.38;5014299;28;20069;-69
2022/10/05 03:33:48;;;;;;;9.95;5.88;;;;;;;10.62;59.83;100428.53;5012005;28;20152;-70
2022/10/05 03:36:22;;;;;;;6.47;5.60;;;;;;;10.72;59.39;100424.66;5013270;28;20113;-69
2022/10/05 03:39:06;;;;;;;8.85;6.50;;;;;;;10.76;58.53;100431.31;5014051;28;20109;-70
2022/10/05 03:42:31;;;;;;;8.52;5.38;;;;;;;10.66;58.94;100431.53;5013272;28;20393;-70
2022/10/05 03:45:06;;;;;;;7.65;4.72;;;;;;;10.60;59.25;100432.75;5011713;28;20089;-70
2022/10/05 03:47:59;;;;;;;6.22;5.18;;;;;;;10.56;58.77;100423.34;5010179;28;20034;-70
2022/10/05 03:50:54;;;;;;;6.30;5.05;;;;;;;10.60;59.30;100427.16;4996771;28;20137;-69
2022/10/05 03:53:30;;;;;;;8.82;4.97;;;;;;;10.53;58.98;100422.00;4994257;28;20065;-70
2022/10/05 03:55:59;;;;;;;6.25;5.00;;;;;;;10.64;59.21;100434.63;5006468;28;20476;-69
2022/10/05 03:58:34;;;;;;;4.63;4.10;;;;;;;10.54;59.22;100437.63;5012346;28;20034;-69
2022/10/05 04:01:06;;;;;;;6.70;4.80;;;;;;;10.51;58.99;100438.25;5018882;28;20017;-70
2022/10/05 04:03:37;;;;;;;7.03;5.97;;;;;;;10.36;60.01;100444.94;5021836;28;20044;-69
2022/10/05 04:06:16;;;;;;;6.05;5.03;;;;;;;9.80;61.20;100442.06;5029926;28;20064;-69
2022/10/05 04:08:59;;;;;;;9.95;5.95;;;;;;;9.93;61.39;100448.81;5013435;28;20029;-70
2022/10/05 04:11:30;;;;;;;14.18;5.60;;;;;;;10.14;60.41;100449.31;5013717;28;20053;-69
2022/10/05 04:14:05;;;;;;;11.35;6.50;;;;;;;10.23;60.47;100461.41;5012521;28;20480;-70
2022/10/05 04:16:38;;;;;;;10.65;6.80;;;;;;;10.30;60.65;100455.41;5007254;28;20034;-70
2022/10/05 04:19:31;;;;;;;14.10;7.05;;;;;;;10.47;60.20;100459.63;4993622;28;20080;-70
2022/10/05 04:22:12;;;;;;;36.70;8.05;;;;;;;10.44;59.60;100460.22;4993594;28;20116;-69
2022/10/05 04:24:40;;;;;;;;;;;;;;;10.31;60.01;100475.81;5002779;28;20104;-72
2022/10/05 04:27:14;;;;;;;14.65;6.30;;;;;;;10.30;60.33;100471.38;5013130;28;19940;-69
2022/10/05 04:30:03;;;;;;;11.10;6.88;;;;;;;10.32;60.56;100477.47;5011644;28;20051;-71
2022/10/05 04:32:34;;;;;;;20.15;7.20;;;;;;;10.38;60.41;100474.28;5001776;28;20034;-69
2022/10/05 04:35:09;;;;;;;15.98;6.63;;;;;;;10.34;59.82;100475.19;5008392;28;20492;-68
2022/10/05 04:38:05;;;;;;;16.23;6.50;;;;;;;10.31;60.06;100470.22;5010202;28;20069;-67
2022/10/05 04:41:21;;;;;;;17.65;6.53;;;;;;;10.31;60.44;100475.81;5008311;28;20042;-68
2022/10/05 04:44:11;;;;;;;25.85;8.30;;;;;;;10.33;60.24;100479.97;4952050;28;20031;-69
2022/10/05 04:47:07;;;;;;;11.55;5.57;;;;;;;10.33;60.29;100473.53;4966590;28;20073;-68
2022/10/05 04:49:41;;;;;;;16.20;5.82;;;;;;;10.27;60.33;100484.00;5008273;28;20033;-69
2022/10/05 04:52:35;;;;;;;16.55;6.32;;;;;;;9.87;61.68;100489.19;5005739;28;20497;-68
2022/10/05 04:55:18;;;;;;;27.10;7.53;;;;;;;10.04;61.11;100500.63;4960478;28;20050;-67
2022/10/05 04:58:22;;;;;;;18.98;6.57;;;;;;;9.95;61.16;100497.69;4998943;28;20471;-69
2022/10/05 05:01:14;;;;;;;14.65;7.07;;;;;;;10.16;61.60;100491.75;5006282;28;20033;-66
2022/10/05 05:04:12;;;;;;;17.83;8.20;;;;;;;10.39;60.28;100489.91;5009560;28;20034;-67
2022/10/05 05:06:47;;;;;;;20.58;9.77;;;;;;;10.51;60.07;100497.00;4993322;28;20129;-67
2022/10/05 05:09:15;;;;;;;15.55;8.75;;;;;;;10.51;60.54;100497.00;5010998;28;20053;-67
2022/10/05 05:12:02;;;;;;;14.90;7.63;;;;;;;10.60;60.48;100499.91;5010468;28;20057;-67
2022/10/05 05:14:37;;;;;;;29.58;8.60;;;;;;;10.73;59.86;100501.06;5010334;28;20053;-67
2022/10/05 05:17:10;;;;;;;26.95;9.57;;;;;;;10.88;59.75;100513.91;5011580;28;20026;-67
2022/10/05 05:19:51;;;;;;;49.15;16.50;;;;;;;10.93;59.48;100516.59;5009217;28;20112;-67
2022/10/05 05:22:36;;;;;;;21.95;9.20;;;;;;;10.94;59.46;100518.25;5009066;28;20080;-67
2022/10/05 05:25:37;;;;;;;23.90;10.15;;;;;;;10.89;60.17;100523.97;5008940;28;20026;-67
2022/10/05 05:28:26;;;;;;;17.15;8.38;;;;;;;11.13;59.73;100528.50;5001155;28;20093;-67
2022/10/05 05:31:00;;;;;;;10.95;7.25;;;;;;;11.34;58.57;100526.09;5006743;28;20112;-67
2022/10/05 05:33:42;;;;;;;15.45;8.00;;;;;;;11.19;58.46;100532.84;5008783;28;20057;-67
2022/10/05 05:36:25;;;;;;;21.23;6.75;;;;;;;10.61;59.49;100540.72;5010960;28;20026;-67
2022/10/05 05:38:50;;;;;;;17.77;10.05;;;;;;;10.34;61.25;100542.31;5002932;28;20032;-67
2022/10/05 05:41:23;;;;;;;23.83;10.10;;;;;;;10.43;61.14;100540.50;5009198;28;20496;-67
2022/10/05 05:44:23;;;;;;;13.10;8.40;;;;;;;10.71;61.07;100537.72;5007425;28;20053;-67
2022/10/05 05:47:01;;;;;;;18.33;9.43;;;;;;;11.14;59.71;100541.38;5011799;28;20017;-67
2022/10/05 05:50:03;;;;;;;13.00;7.50;;;;;;;11.32;58.50;100550.78;5010608;28;20036;-67
2022/10/05 05:52:47;;;;;;;42.38;9.23;;;;;;;11.21;59.38;100558.56;5007763;28;20049;-67
2022/10/05 05:55:15;;;;;;;11.38;6.70;;;;;;;11.29;58.99;100560.63;5008488;28;20034;-67
2022/10/05 05:57:49;;;;;;;29.65;15.77;;;;;;;11.57;58.09;100562.56;5000385;28;20072;-68
2022/10/05 06:00:22;;;;;;;30.77;17.05;;;;;;;11.83;57.50;100574.03;5002986;28;20061;-68
2022/10/05 06:03:21;;;;;;;14.70;8.50;;;;;;;11.92;57.46;100574.91;5010647;28;20117;-68
2022/10/05 06:05:51;;;;;;;11.23;6.53;;;;;;;11.97;56.38;100578.75;4991695;28;20026;-68
2022/10/05 06:08:25;;;;;;;18.00;6.53;;;;;;;12.08;56.50;100583.00;4999053;28;20061;-68
2022/10/05 06:11:00;;;;;;;8.02;6.03;;;;;;;12.08;56.28;100586.59;5007648;28;20060;-67
2022/10/05 06:13:37;;;;;;;12.55;7.30;;;;;;;12.09;56.13;100587.44;5011761;28;20028;-66
2022/10/05 06:16:38;;;;;;;19.13;8.48;;;;;;;12.43;55.47;100585.19;5005602;28;20148;-67
2022/10/05 06:19:16;;;;;;;17.08;7.47;;;;;;;12.43;54.44;100590.81;5005279;28;20034;-66
2022/10/05 06:22:04;;;;;;;18.95;7.90;;;;;;;12.45;54.41;100583.72;5008370;28;20117;-67
2022/10/05 06:24:37;;;;;;;8.15;5.00;;;;;;;12.75;53.03;100598.09;5010777;28;20092;-69
2022/10/05 06:27:19;;;;;;;5.40;4.90;;;;;;;12.87;52.20;100605.94;5011880;28;20032;-68
2022/10/05 06:29:56;;;;;;;13.60;5.38;;;;;;;12.89;52.06;100605.59;5011060;28;20026;-67
2022/10/05 06:32:33;;;;;;;8.52;5.07;;;;;;;12.61;52.75;100602.97;5005265;28;20045;-67
2022/10/05 06:35:13;;;;;;;5.50;4.93;;;;;;;12.81;52.10;100607.19;5009993;28;20025;-67
2022/10/05 06:38:02;;;;;;;7.10;5.03;;;;;;;12.82;52.33;100608.84;5012760;28;20034;-67
2022/10/05 06:41:04;;;;;;;6.43;5.10;;;;;;;12.98;52.16;100605.63;4998954;28;20054;-68
2022/10/05 06:43:38;;;;;;;7.57;5.30;;;;;;;12.99;52.15;100607.28;5011577;28;20026;-69
2022/10/05 06:46:21;;;;;;;10.20;5.00;;;;;;;13.40;50.71;100619.34;5011248;28;20057;-64
2022/10/05 06:49:15;;;;;;;7.30;5.88;;;;;;;13.53;49.91;100611.94;5015269;28;20025;-67
2022/10/05 06:52:12;;;;;;;12.00;6.15;;;;;;;13.79;50.80;100609.19;5011609;28;20032;-67
2022/10/05 06:54:46;;;;;;;19.63;10.55;;;;;;;14.18;49.57;100604.56;5013102;28;20115;-68
2022/10/05 06:57:47;;;;;;;10.57;8.07;;;;;;;14.49;48.64;100599.88;5008702;28;20038;-66
2022/10/05 07:00:23;;;;;;;15.80;8.80;;;;;;;14.80;47.70;100600.81;4993923;28;20041;-72
2022/10/05 07:03:00;;;;;;;16.42;8.55;;;;;;;14.94;47.57;100601.44;5005873;28;20026;-67
2022/10/05 07:05:53;;;;;;;16.33;8.23;;;;;;;14.95;47.42;100600.28;5007307;28;20034;-68
2022/10/05 07:08:31;;;;;;;13.30;8.00;;;;;;;15.11;47.10;100591.28;5012842;28;20546;-68
2022/10/05 07:11:17;;;;;;;9.52;6.25;;;;;;;15.24;47.07;100595.00;5011565;28;20448;-68
2022/10/05 07:14:04;;;;;;;9.13;6.38;;;;;;;15.33;46.87;100592.16;5013101;28;20022;-68
2022/10/05 07:16:33;;;;;;;8.82;5.20;;;;;;;15.50;46.05;100583.59;5011077;28;20116;-68
2022/10/05 07:19:16;;;;;;;13.50;7.93;;;;;;;15.73;46.18;100586.09;5010395;28;20036;-71
2022/10/05 07:22:03;;;;;;;11.90;6.32;;;;;;;15.93;46.06;100589.31;5009047;28;20373;-68
2022/10/05 07:24:39;;;;;;;9.65;5.20;;;;;;;15.85;45.54;100583.34;5008292;28;20543;-68
2022/10/05 07:27:22;;;;;;;10.95;4.53;;;;;;;15.77;45.71;100578.59;5011032;28;20030;-68
2022/10/05 07:29:58;;;;;;;8.75;4.85;;;;;;;15.75;45.99;100580.94;5008712;28;20079;-68
2022/10/05 07:32:31;;;;;;;5.75;4.35;;;;;;;15.63;46.64;100576.06;4994930;28;20022;-68
2022/10/05 07:38:39;;;;;;;10.23;5.73;;;;;;;16.16;44.75;100586.09;5001220;28;20100;-68
2022/10/05 07:41:11;;;;;;;8.70;4.22;;;;;;;16.20;45.03;100573.78;4981935;28;20477;-67
2022/10/05 07:43:55;;;;;;;17.00;5.10;;;;;;;16.18;44.51;100581.75;5010460;28;20042;-69
2022/10/05 07:46:34;;;;;;;6.90;4.45;;;;;;;15.98;45.11;100580.63;4999202;28;20108;-68
2022/10/05 07:49:08;;;;;;;11.02;4.43;;;;;;;16.31;45.13;100577.00;5012262;28;20026;-68
2022/10/05 07:51:39;;;;;;;17.50;4.40;;;;;;;16.39;44.36;100581.72;5010381;28;20120;-68
2022/10/05 07:54:13;;;;;;;7.25;3.72;;;;;;;15.70;45.85;100579.13;5005004;28;20106;-68
2022/10/05 07:56:50;;;;;;;18.50;4.60;;;;;;;16.18;44.81;100569.66;5001761;28;20099;-68
2022/10/05 07:59:43;;;;;;;5.55;3.75;;;;;;;16.69;44.41;100581.56;5008193;28;20103;-68
2022/10/05 08:02:27;;;;;;;8.13;2.95;;;;;;;16.21;44.40;100581.06;5003734;28;20443;-69
2022/10/05 08:05:01;;;;;;;9.90;3.92;;;;;;;16.18;44.79;100576.13;5010058;28;20496;-67
2022/10/05 08:07:30;;;;;;;4.15;3.20;;;;;;;16.29;44.78;100570.88;5011174;28;20029;-68
2022/10/05 08:10:30;;;;;;;9.75;4.28;;;;;;;16.12;45.39;100575.50;5013116;28;20022;-66
2022/10/05 08:13:06;;;;;;;20.70;3.40;;;;;;;16.76;43.83;100574.50;5009268;28;20061;-68
2022/10/05 08:15:38;;;;;;;3.65;2.80;;;;;;;16.67;43.61;100580.28;5011685;28;20033;-68
2022/10/05 08:18:12;;;;;;;5.05;2.13;;;;;;;16.93;42.36;100585.63;5006280;28;20551;-68
2022/10/05 08:20:53;;;;;;;2.88;2.42;;;;;;;17.08;42.25;100575.66;5000395;28;20038;-68
2022/10/05 08:23:47;;;;;;;3.50;2.60;;;;;;;17.40;41.70;100577.88;5007370;28;20026;-68
2022/10/05 08:26:23;;;;;;;4.97;2.78;;;;;;;17.44;41.74;100583.66;5009907;28;20023;-68
2022/10/05 08:28:58;;;;;;;8.57;3.65;;;;;;;17.41;41.50;100585.19;5008119;28;20121;-68
2022/10/05 08:31:28;;;;;;;14.15;2.65;;;;;;;17.26;41.30;100581.06;5008969;28;20037;-68
2022/10/05 08:34:08;;;;;;;4.47;2.72;;;;;;;17.32;41.19;100581.66;5007135;28;20109;-67
2022/10/05 08:37:08;;;;;;;2.65;2.45;;;;;;;17.40;41.41;100583.53;5023662;28;20156;-68
2022/10/05 08:39:39;;;;;;;3.50;2.13;;;;;;;17.45;40.57;100585.31;4998816;28;20112;-68
2022/10/05 08:42:42;;;;;;;10.82;3.28;;;;;;;17.57;40.71;100581.63;5008597;28;20062;-68
2022/10/05 08:45:23;;;;;;;3.63;2.40;;;;;;;17.89;39.73;100579.78;5005796;28;20049;-68
2022/10/05 08:48:22;;;;;;;6.70;2.65;;;;;;;17.64;40.12;100573.38;5011152;28;20500;-68
2022/10/05 08:51:38;;;;;;;3.40;2.83;;;;;;;17.83;40.15;100573.53;5006160;28;20034;-68
2022/10/05 08:54:10;;;;;;;5.30;3.10;;;;;;;18.20;39.62;100569.81;4965013;28;20030;-68
2022/10/05 08:56:38;;;;;;;2.55;2.15;;;;;;;18.29;39.13;100558.31;5011905;28;20096;-68
2022/10/05 08:59:03;;;;;;;2.47;2.28;;;;;;;18.14;38.59;100562.75;5007627;28;20025;-68
2022/10/05 09:01:54;;;;;;;2.88;2.53;;;;;;;18.38;37.87;100558.97;5004165;28;20104;-68
2022/10/05 09:04:43;;;;;;;2.58;2.38;;;;;;;18.66;37.63;100563.78;5002547;28;20477;-68
2022/10/05 09:07:18;;;;;;;5.05;2.22;;;;;;;18.75;36.73;100557.13;5005866;28;20046;-67
2022/10/05 09:10:05;;;;;;;5.63;2.03;;;;;;;19.00;36.57;100562.63;5010264;28;20084;-68
2022/10/05 09:13:23;;;;;;;7.00;2.08;;;;;;;19.25;36.52;100563.25;5003264;28;20044;-68
2022/10/05 09:16:23;;;;;;;3.38;2.25;;;;;;;19.53;35.94;100559.44;4999607;28;20045;-68
2022/10/05 09:19:10;;;;;;;2.42;1.95;;;;;;;19.97;35.39;100546.22;4989432;28;20475;-70
2022/10/05 09:22:06;;;;;;;2.95;1.73;;;;;;;20.12;34.66;100547.34;5011524;28;20413;-69
2022/10/05 09:24:56;;;;;;;9.90;2.67;;;;;;;19.36;35.40;100546.50;5008372;28;20034;-69
2022/10/05 09:27:42;;;;;;;4.18;3.13;;;;;;;18.46;37.38;100543.00;5006608;28;20066;-68
2022/10/05 09:30:39;;;;;;;3.47;1.65;;;;;;;19.09;36.44;100546.25;5006201;28;20029;-69
2022/10/05 09:33:24;;;;;;;3.35;2.00;;;;;;;18.91;36.32;100546.59;5004337;28;20028;-69
2022/10/05 09:36:08;;;;;;;15.30;4.13;;;;;;;19.27;35.69;100540.19;5009906;28;20053;-68
2022/10/05 09:38:59;;;;;;;14.45;4.68;;;;;;;19.68;35.01;100540.75;5000231;28;20509;-67
2022/10/05 09:41:24;;;;;;;3.17;2.38;;;;;;;19.67;34.38;100535.41;5005438;28;20612;-68
2022/10/05 09:43:52;;;;;;;3.58;1.80;;;;;;;19.88;34.33;100540.72;5007840;28;20100;-68
2022/10/05 09:46:46;;;;;;;2.83;1.98;;;;;;;20.10;33.79;100541.22;5004960;28;20030;-69
2022/10/05 09:49:45;;;;;;;1.95;1.60;;;;;;;19.91;33.73;100540.00;5007685;28;20126;-69
2022/10/05 09:52:35;;;;;;;2.60;2.13;;;;;;;19.69;34.34;100550.91;5008979;28;20492;-70
2022/10/05 09:55:19;;;;;;;2.95;1.88;;;;;;;19.69;34.32;100547.22;5010995;28;20080;-69
2022/10/05 09:57:50;;;;;;;4.78;2.05;;;;;;;20.06;33.80;100541.97;5010197;28;20112;-70
2022/10/05 10:00:22;;;;;;;2.75;2.50;;;;;;;20.04;34.21;100543.53;5007788;28;20475;-70
2022/10/05 10:03:01;;;;;;;5.97;1.95;;;;;;;20.31;33.72;100541.66;5014673;28;20048;-71
2022/10/05 10:05:32;;;;;;;5.82;1.95;;;;;;;20.39;33.52;100542.59;5003689;28;20034;-71
2022/10/05 10:08:35;;;;;;;3.05;2.00;;;;;;;20.00;34.39;100534.13;5001990;28;20033;-70
2022/10/05 10:11:06;;;;;;;3.38;2.05;;;;;;;20.26;34.34;100539.09;5008126;28;20135;-69
2022/10/05 10:14:04;;;;;;;2.60;2.25;;;;;;;20.55;33.28;100539.66;5004504;28;20160;-68
2022/10/05 10:17:08;;;;;;;2.20;1.80;;;;;;;20.68;33.72;100540.28;5005966;28;20391;-68
2022/10/05 10:19:55;;;;;;;3.17;1.98;;;;;;;21.07;33.09;100539.34;4979367;28;20046;-67
2022/10/05 10:22:57;;;;;;;3.05;1.98;;;;;;;21.12;32.45;100535.38;5007913;28;20025;-69
2022/10/05 10:25:40;;;;;;;2.25;2.05;;;;;;;21.28;33.05;100530.31;5004068;28;20091;-70
2022/10/05 10:28:34;;;;;;;5.70;2.92;;;;;;;21.15;33.02;100523.22;5010496;28;20022;-69
2022/10/05 10:31:20;;;;;;;6.75;2.30;;;;;;;21.11;32.44;100520.31;5008605;28;20113;-71
2022/10/05 10:33:57;;;;;;;2.33;2.13;;;;;;;20.92;32.57;100509.03;5006798;28;20044;-70
2022/10/05 10:36:37;;;;;;;4.85;2.20;;;;;;;21.13;32.16;100517.94;5008766;28;20100;-72
2022/10/05 10:39:10;;;;;;;3.40;2.03;;;;;;;21.64;31.12;100527.19;5005556;28;20030;-69
2022/10/05 10:42:17;;;;;;;3.42;2.40;;;;;;;20.51;32.01;100521.69;5006884;28;20065;-69
2022/10/05 10:44:58;;;;;;;3.50;1.85;;;;;;;20.43;32.77;100517.91;4947354;28;20062;-69
2022/10/05 10:47:46;;;;;;;2.40;1.83;;;;;;;20.93;32.40;100522.88;4947770;28;20045;-70
2022/10/05 10:50:53;;;;;;;1.88;1.67;;;;;;;20.75;31.85;100519.69;4994315;28;20046;-71
2022/10/05 10:53:21;;;;;;;2.95;2.00;;;;;;;20.69;31.63;100521.22;4997699;28;20030;-69
2022/10/05 10:56:22;;;;;;;5.32;1.70;;;;;;;21.35;31.94;100523.91;5013264;28;20263;-71
2022/10/05 10:58:48;;;;;;;2.15;1.45;;;;;;;21.41;30.71;100524.41;5008829;28;20045;-70
2022/10/05 11:01:33;;;;;;;5.55;1.60;;;;;;;21.81;30.76;100519.28;5008758;28;20026;-71
2022/10/05 11:04:11;;;;;;;2.35;1.58;;;;;;;22.20;29.67;100516.09;5004110;28;20026;-69
2022/10/05 11:06:52;;;;;;;1.40;1.30;;;;;;;22.29;29.97;100519.47;5006591;28;20053;-69
2022/10/05 11:09:53;;;;;;;2.80;1.80;;;;;;;22.20;29.88;100510.41;4993706;28;20030;-71
2022/10/05 11:12:48;;;;;;;2.15;1.95;;;;;;;22.09;30.27;100515.97;5010506;28;20026;-68
2022/10/05 11:15:38;;;;;;;10.35;1.80;;;;;;;22.02;30.35;100510.19;5013891;28;20065;-69
2022/10/05 11:18:03;;;;;;;;;;;;;;;21.97;30.27;100511.38;5008073;28;20026;-70
2022/10/05 11:20:38;;;;;;;1.58;1.48;;;;;;;22.05;29.99;100508.59;5009789;28;20394;-70
2022/10/05 11:23:38;;;;;;;4.38;2.10;;;;;;;21.83;30.32;100499.78;4998723;28;20089;-69
2022/10/05 11:26:09;;;;;;;3.53;1.80;;;;;;;21.94;29.17;100497.09;4999332;28;20025;-70
2022/10/05 11:28:53;;;;;;;5.00;2.15;;;;;;;21.94;29.27;100492.19;5009050;28;20455;-71
2022/10/05 11:31:39;;;;;;;1.88;1.70;;;;;;;21.55;29.55;100496.19;5005660;28;20502;-69
2022/10/05 11:34:29;;;;;;;5.65;1.70;;;;;;;21.36;29.38;100497.13;4998579;28;20106;-69
2022/10/05 11:37:15;;;;;;;1.35;1.23;;;;;;;21.76;28.76;100491.19;5003961;28;20022;-69
2022/10/05 11:40:09;;;;;;;2.13;1.90;;;;;;;21.88;29.25;100491.72;5012180;28;20484;-69
2022/10/05 11:43:19;;;;;;;2.00;1.80;;;;;;;21.60;30.08;100487.28;5011136;28;20509;-69
2022/10/05 11:46:09;;;;;;;5.13;1.75;;;;;;;21.64;29.81;100484.50;4991281;28;20051;-69
2022/10/05 11:48:37;;;;;;;;;;;;;;;21.92;29.25;100483.22;5002727;28;20034;-69
2022/10/05 11:51:09;;;;;;;3.42;2.50;;;;;;;21.65;30.10;100485.31;5008294;28;20017;-69
2022/10/05 11:54:27;;;;;;;5.85;2.72;;;;;;;21.42;30.80;100481.34;5011122;28;20037;-69
2022/10/05 11:57:16;;;;;;;5.68;2.58;;;;;;;22.04;30.38;100475.63;5009575;28;20029;-70
2022/10/05 12:00:00;;;;;;;3.08;1.63;;;;;;;22.09;29.77;100473.25;5010254;28;20037;-68
2022/10/05 12:02:58;;;;;;;6.07;2.20;;;;;;;22.18;29.48;100474.97;5009586;28;20030;-68
2022/10/05 12:05:40;;;;;;;4.03;2.00;;;;;;;22.04;29.69;100473.63;5005136;28;20025;-68
2022/10/05 12:08:33;;;;;;;3.55;2.03;;;;;;;22.13;29.33;100476.16;5005352;28;20022;-69
2022/10/05 12:11:17;;;;;;;3.22;2.05;;;;;;;22.57;29.41;100468.88;5006208;28;20029;-69
2022/10/05 12:13:47;;;;;;;8.73;2.45;;;;;;;22.76;28.54;100462.09;5011967;28;20116;-70
2022/10/05 12:16:36;;;;;;;7.53;5.80;;;;;;;22.82;28.90;100456.84;5008615;28;20072;-69
2022/10/05 12:19:04;;;;;;;3.17;1.80;;;;;;;22.67;27.84;100453.06;5005507;28;20048;-69
2022/10/05 12:21:33;;;;;;;4.15;1.65;;;;;;;22.65;28.35;100456.34;5008867;28;20477;-69
2022/10/05 12:24:36;;;;;;;7.65;1.85;;;;;;;23.03;27.77;100459.03;5007981;28;20056;-69
2022/10/05 12:27:11;;;;;;;3.92;2.00;;;;;;;23.18;26.95;100447.75;5005177;28;20493;-68
2022/10/05 12:29:48;;;;;;;3.28;1.48;;;;;;;22.98;26.57;100440.25;5012201;28;20025;-69
2022/10/05 12:32:22;;;;;;;1.98;1.75;;;;;;;22.80;26.80;100440.13;5007172;28;20022;-70
2022/10/05 12:35:24;;;;;;;1.30;1.20;;;;;;;22.72;26.44;100438.47;5008823;28;20037;-71
2022/10/05 12:37:52;;;;;;;1.80;1.70;;;;;;;23.07;26.68;100439.94;5005722;28;21913;-69